Suzuka, Japan
Current Conditions -  °F | °C
As of 8:00 PM on Monday 22 Dec 2014 (Local Time) from RJGG Reporting Station
Scattered Clouds Scattered Clouds  
Wind Chill: 31°   Ceiling: Unl
Heat Index: 41°   Visibility: 6mi
Dew Point: 25°   Wind: 22mph
Humidity: 53%   Direction: 270°W
Pressure: 30.06"   Gusts: NA
Location:  34.88°N, 136.58°E
Report Text: RJGG 221100Z 27019KT 9999 FEW030 SCT070 05/M04 Q1018 NOSIG
Loading
Personal Weather Stations






























Interactive Weather Map New forecast layout! Learn more

10-Day Weather Forecast

Advertisements
Track Severe Weather on mobile